sensor_id;sensor_type;location;lat;lon;timestamp;P1;durP1;ratioP1;P2;durP2;ratioP2
52534;SDS011;38443;53.164;5.802;2023-05-21T00:02:07;9.60;;;4.40;;
52534;SDS011;38443;53.164;5.802;2023-05-21T00:04:36;7.30;;;4.22;;
52534;SDS011;38443;53.164;5.802;2023-05-21T00:07:02;7.05;;;4.65;;
52534;SDS011;38443;53.164;5.802;2023-05-21T00:09:27;6.85;;;4.38;;
52534;SDS011;38443;53.164;5.802;2023-05-21T00:11:53;5.65;;;4.57;;
52534;SDS011;38443;53.164;5.802;2023-05-21T00:14:18;7.93;;;4.55;;
52534;SDS011;38443;53.164;5.802;2023-05-21T00:16:43;6.45;;;4.25;;
52534;SDS011;38443;53.164;5.802;2023-05-21T00:19:10;6.88;;;5.43;;
52534;SDS011;38443;53.164;5.802;2023-05-21T00:21:36;7.20;;;4.07;;
52534;SDS011;38443;53.164;5.802;2023-05-21T00:24:02;5.70;;;4.10;;
52534;SDS011;38443;53.164;5.802;2023-05-21T00:26:27;6.03;;;4.43;;
52534;SDS011;38443;53.164;5.802;2023-05-21T00:28:52;10.55;;;4.88;;
52534;SDS011;38443;53.164;5.802;2023-05-21T00:31:18;8.27;;;4.50;;
52534;SDS011;38443;53.164;5.802;2023-05-21T00:33:43;8.18;;;4.80;;
52534;SDS011;38443;53.164;5.802;2023-05-21T00:36:08;8.02;;;5.35;;
52534;SDS011;38443;53.164;5.802;2023-05-21T00:38:38;6.88;;;4.72;;
52534;SDS011;38443;53.164;5.802;2023-05-21T00:41:07;7.18;;;5.30;;
52534;SDS011;38443;53.164;5.802;2023-05-21T00:43:33;6.45;;;4.15;;
52534;SDS011;38443;53.164;5.802;2023-05-21T00:45:58;7.68;;;4.40;;
52534;SDS011;38443;53.164;5.802;2023-05-21T00:48:23;7.32;;;4.88;;
52534;SDS011;38443;53.164;5.802;2023-05-21T00:50:50;6.78;;;4.55;;
52534;SDS011;38443;53.164;5.802;2023-05-21T00:53:16;6.97;;;5.05;;
52534;SDS011;38443;53.164;5.802;2023-05-21T00:55:43;5.38;;;4.53;;
52534;SDS011;38443;53.164;5.802;2023-05-21T00:58:09;5.63;;;4.53;;
52534;SDS011;38443;53.164;5.802;2023-05-21T01:00:35;8.80;;;5.55;;
52534;SDS011;38443;53.164;5.802;2023-05-21T01:03:04;7.15;;;4.68;;
52534;SDS011;38443;53.164;5.802;2023-05-21T01:05:30;5.88;;;4.18;;
52534;SDS011;38443;53.164;5.802;2023-05-21T01:07:56;6.25;;;4.10;;
52534;SDS011;38443;53.164;5.802;2023-05-21T01:10:23;7.20;;;4.47;;
52534;SDS011;38443;53.164;5.802;2023-05-21T01:12:49;7.22;;;4.72;;
52534;SDS011;38443;53.164;5.802;2023-05-21T01:15:16;8.20;;;4.78;;
52534;SDS011;38443;53.164;5.802;2023-05-21T01:17:42;5.82;;;4.65;;
52534;SDS011;38443;53.164;5.802;2023-05-21T01:20:10;7.03;;;4.45;;
52534;SDS011;38443;53.164;5.802;2023-05-21T01:22:57;8.18;;;4.78;;
52534;SDS011;38443;53.164;5.802;2023-05-21T01:25:22;6.80;;;4.50;;
52534;SDS011;38443;53.164;5.802;2023-05-21T01:27:48;7.28;;;4.57;;
52534;SDS011;38443;53.164;5.802;2023-05-21T01:30:14;7.32;;;4.88;;
52534;SDS011;38443;53.164;5.802;2023-05-21T01:35:26;5.68;;;4.30;;
52534;SDS011;38443;53.164;5.802;2023-05-21T01:37:58;10.30;;;5.00;;
52534;SDS011;38443;53.164;5.802;2023-05-21T01:40:44;7.95;;;4.93;;
52534;SDS011;38443;53.164;5.802;2023-05-21T01:43:19;6.47;;;4.63;;
52534;SDS011;38443;53.164;5.802;2023-05-21T01:45:46;7.93;;;4.13;;
52534;SDS011;38443;53.164;5.802;2023-05-21T01:48:13;9.55;;;4.97;;
52534;SDS011;38443;53.164;5.802;2023-05-21T01:50:42;6.85;;;4.43;;
52534;SDS011;38443;53.164;5.802;2023-05-21T01:53:08;7.13;;;4.28;;
52534;SDS011;38443;53.164;5.802;2023-05-21T01:55:34;6.60;;;4.75;;
52534;SDS011;38443;53.164;5.802;2023-05-21T01:58:03;7.10;;;4.45;;
52534;SDS011;38443;53.164;5.802;2023-05-21T02:00:28;7.50;;;4.60;;
52534;SDS011;38443;53.164;5.802;2023-05-21T02:02:56;6.05;;;4.35;;
52534;SDS011;38443;53.164;5.802;2023-05-21T02:05:22;6.63;;;4.20;;
52534;SDS011;38443;53.164;5.802;2023-05-21T02:07:48;6.93;;;4.85;;
52534;SDS011;38443;53.164;5.802;2023-05-21T02:10:15;7.78;;;4.75;;
52534;SDS011;38443;53.164;5.802;2023-05-21T02:12:41;8.30;;;5.00;;
52534;SDS011;38443;53.164;5.802;2023-05-21T02:15:07;7.18;;;4.40;;
52534;SDS011;38443;53.164;5.802;2023-05-21T02:17:33;6.50;;;4.30;;
52534;SDS011;38443;53.164;5.802;2023-05-21T02:19:58;8.18;;;4.30;;
52534;SDS011;38443;53.164;5.802;2023-05-21T02:22:43;9.85;;;4.78;;
52534;SDS011;38443;53.164;5.802;2023-05-21T02:25:10;8.65;;;5.28;;
52534;SDS011;38443;53.164;5.802;2023-05-21T02:27:37;9.40;;;5.03;;
52534;SDS011;38443;53.164;5.802;2023-05-21T02:30:04;7.75;;;4.95;;
52534;SDS011;38443;53.164;5.802;2023-05-21T02:32:34;8.85;;;5.60;;
52534;SDS011;38443;53.164;5.802;2023-05-21T02:35:01;8.15;;;5.20;;
52534;SDS011;38443;53.164;5.802;2023-05-21T02:37:28;10.25;;;5.05;;
52534;SDS011;38443;53.164;5.802;2023-05-21T02:39:54;6.82;;;5.32;;
52534;SDS011;38443;53.164;5.802;2023-05-21T02:42:22;7.68;;;5.10;;
52534;SDS011;38443;53.164;5.802;2023-05-21T02:44:48;8.85;;;5.55;;
52534;SDS011;38443;53.164;5.802;2023-05-21T02:47:14;12.93;;;6.00;;
52534;SDS011;38443;53.164;5.802;2023-05-21T02:49:40;9.00;;;5.65;;
52534;SDS011;38443;53.164;5.802;2023-05-21T02:52:05;9.73;;;5.85;;
52534;SDS011;38443;53.164;5.802;2023-05-21T02:54:31;9.68;;;5.78;;
52534;SDS011;38443;53.164;5.802;2023-05-21T02:56:56;10.75;;;5.88;;
52534;SDS011;38443;53.164;5.802;2023-05-21T02:59:22;10.50;;;5.63;;
52534;SDS011;38443;53.164;5.802;2023-05-21T03:01:47;8.45;;;5.55;;
52534;SDS011;38443;53.164;5.802;2023-05-21T03:04:13;9.65;;;5.38;;
52534;SDS011;38443;53.164;5.802;2023-05-21T03:06:38;8.68;;;5.40;;
52534;SDS011;38443;53.164;5.802;2023-05-21T03:09:04;8.85;;;5.55;;
52534;SDS011;38443;53.164;5.802;2023-05-21T03:11:30;7.38;;;5.82;;
52534;SDS011;38443;53.164;5.802;2023-05-21T03:13:56;11.43;;;5.40;;
52534;SDS011;38443;53.164;5.802;2023-05-21T03:16:21;10.63;;;5.72;;
52534;SDS011;38443;53.164;5.802;2023-05-21T03:18:46;10.75;;;5.70;;
52534;SDS011;38443;53.164;5.802;2023-05-21T03:21:12;7.55;;;5.30;;
52534;SDS011;38443;53.164;5.802;2023-05-21T03:23:39;15.05;;;6.65;;
52534;SDS011;38443;53.164;5.802;2023-05-21T03:26:08;10.43;;;6.22;;
52534;SDS011;38443;53.164;5.802;2023-05-21T03:28:34;8.35;;;5.28;;
52534;SDS011;38443;53.164;5.802;2023-05-21T03:30:59;9.13;;;5.60;;
52534;SDS011;38443;53.164;5.802;2023-05-21T03:33:25;11.10;;;5.80;;
52534;SDS011;38443;53.164;5.802;2023-05-21T03:35:50;11.65;;;5.80;;
52534;SDS011;38443;53.164;5.802;2023-05-21T03:38:16;11.65;;;5.43;;
52534;SDS011;38443;53.164;5.802;2023-05-21T03:40:41;10.38;;;5.68;;
52534;SDS011;38443;53.164;5.802;2023-05-21T03:43:06;9.15;;;5.45;;
52534;SDS011;38443;53.164;5.802;2023-05-21T03:45:32;13.10;;;6.20;;
52534;SDS011;38443;53.164;5.802;2023-05-21T03:47:57;13.85;;;6.10;;
52534;SDS011;38443;53.164;5.802;2023-05-21T03:50:22;9.02;;;5.47;;
52534;SDS011;38443;53.164;5.802;2023-05-21T03:52:48;11.70;;;5.82;;
52534;SDS011;38443;53.164;5.802;2023-05-21T03:55:13;12.32;;;5.22;;
52534;SDS011;38443;53.164;5.802;2023-05-21T03:57:38;6.97;;;5.00;;
52534;SDS011;38443;53.164;5.802;2023-05-21T04:00:04;11.43;;;5.78;;
52534;SDS011;38443;53.164;5.802;2023-05-21T04:02:30;9.50;;;5.40;;
52534;SDS011;38443;53.164;5.802;2023-05-21T04:04:56;10.23;;;6.57;;
52534;SDS011;38443;53.164;5.802;2023-05-21T04:07:21;10.70;;;6.05;;
52534;SDS011;38443;53.164;5.802;2023-05-21T04:09:46;12.15;;;6.00;;
52534;SDS011;38443;53.164;5.802;2023-05-21T04:12:12;9.75;;;5.10;;
52534;SDS011;38443;53.164;5.802;2023-05-21T04:14:37;10.10;;;5.90;;
52534;SDS011;38443;53.164;5.802;2023-05-21T04:17:03;10.05;;;5.63;;
52534;SDS011;38443;53.164;5.802;2023-05-21T04:19:29;12.82;;;6.43;;
52534;SDS011;38443;53.164;5.802;2023-05-21T04:21:55;9.13;;;4.97;;
52534;SDS011;38443;53.164;5.802;2023-05-21T04:24:22;9.45;;;5.15;;
52534;SDS011;38443;53.164;5.802;2023-05-21T04:26:47;13.15;;;5.38;;
52534;SDS011;38443;53.164;5.802;2023-05-21T04:29:13;10.35;;;5.32;;
52534;SDS011;38443;53.164;5.802;2023-05-21T04:31:43;11.90;;;5.80;;
52534;SDS011;38443;53.164;5.802;2023-05-21T04:34:09;9.63;;;4.63;;
52534;SDS011;38443;53.164;5.802;2023-05-21T04:36:34;8.95;;;4.65;;
52534;SDS011;38443;53.164;5.802;2023-05-21T04:39:00;11.75;;;5.20;;
52534;SDS011;38443;53.164;5.802;2023-05-21T04:41:26;12.43;;;5.65;;
52534;SDS011;38443;53.164;5.802;2023-05-21T04:43:52;10.82;;;5.18;;
52534;SDS011;38443;53.164;5.802;2023-05-21T04:46:22;8.23;;;5.03;;
52534;SDS011;38443;53.164;5.802;2023-05-21T04:48:53;6.72;;;4.57;;
52534;SDS011;38443;53.164;5.802;2023-05-21T04:51:19;10.25;;;5.13;;
52534;SDS011;38443;53.164;5.802;2023-05-21T04:53:46;11.50;;;4.90;;
52534;SDS011;38443;53.164;5.802;2023-05-21T04:56:13;11.40;;;4.55;;
52534;SDS011;38443;53.164;5.802;2023-05-21T04:58:40;8.55;;;4.70;;
52534;SDS011;38443;53.164;5.802;2023-05-21T05:01:05;9.48;;;4.40;;
52534;SDS011;38443;53.164;5.802;2023-05-21T05:03:32;13.02;;;4.70;;
52534;SDS011;38443;53.164;5.802;2023-05-21T05:05:58;9.30;;;4.20;;
52534;SDS011;38443;53.164;5.802;2023-05-21T05:08:23;7.75;;;4.38;;
52534;SDS011;38443;53.164;5.802;2023-05-21T05:10:48;10.32;;;4.65;;
52534;SDS011;38443;53.164;5.802;2023-05-21T05:13:14;9.60;;;4.65;;
52534;SDS011;38443;53.164;5.802;2023-05-21T05:15:40;15.05;;;4.90;;
52534;SDS011;38443;53.164;5.802;2023-05-21T05:18:05;10.88;;;4.90;;
52534;SDS011;38443;53.164;5.802;2023-05-21T05:20:32;8.88;;;4.60;;
52534;SDS011;38443;53.164;5.802;2023-05-21T05:22:57;10.10;;;4.25;;
52534;SDS011;38443;53.164;5.802;2023-05-21T05:25:23;9.73;;;4.25;;
52534;SDS011;38443;53.164;5.802;2023-05-21T05:27:48;8.20;;;4.47;;
52534;SDS011;38443;53.164;5.802;2023-05-21T05:30:14;8.10;;;4.32;;
52534;SDS011;38443;53.164;5.802;2023-05-21T05:32:39;9.30;;;4.50;;
52534;SDS011;38443;53.164;5.802;2023-05-21T05:35:05;12.05;;;4.82;;
52534;SDS011;38443;53.164;5.802;2023-05-21T05:37:31;9.30;;;4.57;;
52534;SDS011;38443;53.164;5.802;2023-05-21T05:39:57;8.07;;;4.53;;
52534;SDS011;38443;53.164;5.802;2023-05-21T05:42:23;13.48;;;4.47;;
52534;SDS011;38443;53.164;5.802;2023-05-21T05:44:48;10.68;;;5.25;;
52534;SDS011;38443;53.164;5.802;2023-05-21T05:47:13;7.55;;;4.28;;
52534;SDS011;38443;53.164;5.802;2023-05-21T05:49:38;9.52;;;4.60;;
52534;SDS011;38443;53.164;5.802;2023-05-21T05:52:04;10.40;;;4.70;;
52534;SDS011;38443;53.164;5.802;2023-05-21T05:54:30;8.77;;;4.80;;
52534;SDS011;38443;53.164;5.802;2023-05-21T05:56:56;7.43;;;4.78;;
52534;SDS011;38443;53.164;5.802;2023-05-21T05:59:21;7.68;;;4.80;;
52534;SDS011;38443;53.164;5.802;2023-05-21T06:01:46;9.13;;;5.05;;
52534;SDS011;38443;53.164;5.802;2023-05-21T06:04:12;11.40;;;4.75;;
52534;SDS011;38443;53.164;5.802;2023-05-21T06:06:37;10.10;;;4.45;;
52534;SDS011;38443;53.164;5.802;2023-05-21T06:09:02;10.18;;;4.88;;
52534;SDS011;38443;53.164;5.802;2023-05-21T06:11:28;8.70;;;4.53;;
52534;SDS011;38443;53.164;5.802;2023-05-21T06:13:53;8.15;;;4.20;;
52534;SDS011;38443;53.164;5.802;2023-05-21T06:16:18;14.57;;;4.53;;
52534;SDS011;38443;53.164;5.802;2023-05-21T06:18:44;8.80;;;4.25;;
52534;SDS011;38443;53.164;5.802;2023-05-21T06:21:09;13.75;;;5.20;;
52534;SDS011;38443;53.164;5.802;2023-05-21T06:23:34;7.85;;;4.80;;
52534;SDS011;38443;53.164;5.802;2023-05-21T06:26:01;7.85;;;4.53;;
52534;SDS011;38443;53.164;5.802;2023-05-21T06:28:27;9.68;;;4.82;;
52534;SDS011;38443;53.164;5.802;2023-05-21T06:30:53;10.32;;;5.00;;
52534;SDS011;38443;53.164;5.802;2023-05-21T06:33:18;10.95;;;4.78;;
52534;SDS011;38443;53.164;5.802;2023-05-21T06:35:43;10.98;;;5.00;;
52534;SDS011;38443;53.164;5.802;2023-05-21T06:38:09;13.52;;;5.35;;
52534;SDS011;38443;53.164;5.802;2023-05-21T06:40:34;9.98;;;4.65;;
52534;SDS011;38443;53.164;5.802;2023-05-21T06:42:59;10.18;;;4.72;;
52534;SDS011;38443;53.164;5.802;2023-05-21T06:45:24;7.78;;;4.43;;
52534;SDS011;38443;53.164;5.802;2023-05-21T06:47:50;8.02;;;4.85;;
52534;SDS011;38443;53.164;5.802;2023-05-21T06:50:15;11.85;;;4.90;;
52534;SDS011;38443;53.164;5.802;2023-05-21T06:52:41;9.07;;;4.63;;
52534;SDS011;38443;53.164;5.802;2023-05-21T06:55:06;11.60;;;4.47;;
52534;SDS011;38443;53.164;5.802;2023-05-21T06:57:32;8.52;;;5.20;;
52534;SDS011;38443;53.164;5.802;2023-05-21T06:59:57;7.95;;;4.53;;
52534;SDS011;38443;53.164;5.802;2023-05-21T07:02:22;8.73;;;4.90;;
52534;SDS011;38443;53.164;5.802;2023-05-21T07:04:48;9.10;;;4.63;;
52534;SDS011;38443;53.164;5.802;2023-05-21T07:07:13;11.73;;;4.63;;
52534;SDS011;38443;53.164;5.802;2023-05-21T07:09:39;9.80;;;4.80;;
52534;SDS011;38443;53.164;5.802;2023-05-21T07:12:04;10.25;;;4.70;;
52534;SDS011;38443;53.164;5.802;2023-05-21T07:14:30;10.48;;;4.88;;
52534;SDS011;38443;53.164;5.802;2023-05-21T07:16:55;11.60;;;6.25;;
52534;SDS011;38443;53.164;5.802;2023-05-21T07:19:21;7.53;;;4.70;;
52534;SDS011;38443;53.164;5.802;2023-05-21T07:21:46;8.68;;;4.80;;
52534;SDS011;38443;53.164;5.802;2023-05-21T07:24:11;6.97;;;4.38;;
52534;SDS011;38443;53.164;5.802;2023-05-21T07:26:37;8.55;;;4.50;;
52534;SDS011;38443;53.164;5.802;2023-05-21T07:29:02;7.88;;;4.45;;
52534;SDS011;38443;53.164;5.802;2023-05-21T07:31:27;8.15;;;4.95;;
52534;SDS011;38443;53.164;5.802;2023-05-21T07:33:53;7.32;;;4.30;;
52534;SDS011;38443;53.164;5.802;2023-05-21T07:36:18;10.65;;;4.32;;
52534;SDS011;38443;53.164;5.802;2023-05-21T07:38:43;9.52;;;4.20;;
52534;SDS011;38443;53.164;5.802;2023-05-21T07:41:08;9.98;;;4.15;;
52534;SDS011;38443;53.164;5.802;2023-05-21T07:43:34;12.02;;;5.65;;
52534;SDS011;38443;53.164;5.802;2023-05-21T07:46:00;8.98;;;5.03;;
52534;SDS011;38443;53.164;5.802;2023-05-21T07:48:25;9.90;;;4.35;;
52534;SDS011;38443;53.164;5.802;2023-05-21T07:50:51;7.90;;;4.38;;
52534;SDS011;38443;53.164;5.802;2023-05-21T07:53:16;8.63;;;4.70;;
52534;SDS011;38443;53.164;5.802;2023-05-21T07:55:42;7.35;;;4.13;;
52534;SDS011;38443;53.164;5.802;2023-05-21T07:58:13;8.10;;;4.22;;
52534;SDS011;38443;53.164;5.802;2023-05-21T08:00:42;7.15;;;4.15;;
52534;SDS011;38443;53.164;5.802;2023-05-21T08:03:09;8.88;;;4.35;;
52534;SDS011;38443;53.164;5.802;2023-05-21T08:05:36;6.35;;;4.50;;
52534;SDS011;38443;53.164;5.802;2023-05-21T08:08:01;8.20;;;4.63;;
52534;SDS011;38443;53.164;5.802;2023-05-21T08:10:27;8.48;;;4.47;;
52534;SDS011;38443;53.164;5.802;2023-05-21T08:12:52;7.45;;;4.93;;
52534;SDS011;38443;53.164;5.802;2023-05-21T08:15:17;5.03;;;3.78;;
52534;SDS011;38443;53.164;5.802;2023-05-21T08:17:43;8.30;;;4.55;;
52534;SDS011;38443;53.164;5.802;2023-05-21T08:20:08;6.85;;;4.60;;
52534;SDS011;38443;53.164;5.802;2023-05-21T08:22:34;6.75;;;4.22;;
52534;SDS011;38443;53.164;5.802;2023-05-21T08:24:59;9.02;;;3.88;;
52534;SDS011;38443;53.164;5.802;2023-05-21T08:27:25;7.07;;;4.00;;
52534;SDS011;38443;53.164;5.802;2023-05-21T08:29:50;9.73;;;3.45;;
52534;SDS011;38443;53.164;5.802;2023-05-21T08:32:16;7.22;;;4.20;;
52534;SDS011;38443;53.164;5.802;2023-05-21T08:34:42;10.30;;;4.28;;
52534;SDS011;38443;53.164;5.802;2023-05-21T08:37:07;7.35;;;4.05;;
52534;SDS011;38443;53.164;5.802;2023-05-21T08:39:32;6.32;;;3.95;;
52534;SDS011;38443;53.164;5.802;2023-05-21T08:42:01;7.95;;;3.85;;
52534;SDS011;38443;53.164;5.802;2023-05-21T08:44:34;6.82;;;3.60;;
52534;SDS011;38443;53.164;5.802;2023-05-21T08:47:06;9.85;;;3.97;;
52534;SDS011;38443;53.164;5.802;2023-05-21T08:49:33;9.32;;;3.63;;
52534;SDS011;38443;53.164;5.802;2023-05-21T08:51:59;5.45;;;3.30;;
52534;SDS011;38443;53.164;5.802;2023-05-21T08:54:26;9.68;;;4.00;;
52534;SDS011;38443;53.164;5.802;2023-05-21T08:56:52;5.65;;;3.17;;
52534;SDS011;38443;53.164;5.802;2023-05-21T08:59:17;6.05;;;3.50;;
52534;SDS011;38443;53.164;5.802;2023-05-21T09:01:45;6.00;;;3.50;;
52534;SDS011;38443;53.164;5.802;2023-05-21T09:04:11;7.10;;;3.70;;
52534;SDS011;38443;53.164;5.802;2023-05-21T09:06:40;5.95;;;3.42;;
52534;SDS011;38443;53.164;5.802;2023-05-21T09:09:09;7.68;;;3.83;;
52534;SDS011;38443;53.164;5.802;2023-05-21T09:12:04;6.95;;;3.28;;
52534;SDS011;38443;53.164;5.802;2023-05-21T09:14:30;7.10;;;3.83;;
52534;SDS011;38443;53.164;5.802;2023-05-21T09:16:57;4.22;;;3.05;;
52534;SDS011;38443;53.164;5.802;2023-05-21T09:19:22;8.32;;;3.70;;
52534;SDS011;38443;53.164;5.802;2023-05-21T09:21:49;6.60;;;3.90;;
52534;SDS011;38443;53.164;5.802;2023-05-21T09:24:16;5.90;;;3.58;;
52534;SDS011;38443;53.164;5.802;2023-05-21T09:26:42;7.60;;;3.67;;
52534;SDS011;38443;53.164;5.802;2023-05-21T09:29:07;8.80;;;3.67;;
52534;SDS011;38443;53.164;5.802;2023-05-21T09:31:33;6.30;;;3.75;;
52534;SDS011;38443;53.164;5.802;2023-05-21T09:33:58;8.15;;;4.18;;
52534;SDS011;38443;53.164;5.802;2023-05-21T09:36:23;6.45;;;3.40;;
52534;SDS011;38443;53.164;5.802;2023-05-21T09:38:49;5.63;;;3.30;;
52534;SDS011;38443;53.164;5.802;2023-05-21T09:41:29;6.30;;;3.20;;
52534;SDS011;38443;53.164;5.802;2023-05-21T09:44:00;4.70;;;3.17;;
52534;SDS011;38443;53.164;5.802;2023-05-21T09:46:26;5.45;;;3.50;;
52534;SDS011;38443;53.164;5.802;2023-05-21T09:48:51;12.43;;;3.95;;
52534;SDS011;38443;53.164;5.802;2023-05-21T09:51:18;7.78;;;3.92;;
52534;SDS011;38443;53.164;5.802;2023-05-21T09:53:53;5.78;;;3.78;;
52534;SDS011;38443;53.164;5.802;2023-05-21T09:56:28;6.07;;;4.00;;
52534;SDS011;38443;53.164;5.802;2023-05-21T09:58:55;6.68;;;3.55;;
52534;SDS011;38443;53.164;5.802;2023-05-21T10:01:22;5.63;;;3.70;;
52534;SDS011;38443;53.164;5.802;2023-05-21T10:03:55;6.28;;;3.60;;
52534;SDS011;38443;53.164;5.802;2023-05-21T10:06:29;6.22;;;3.63;;
52534;SDS011;38443;53.164;5.802;2023-05-21T10:08:56;4.95;;;3.47;;
52534;SDS011;38443;53.164;5.802;2023-05-21T10:11:24;6.30;;;4.05;;
52534;SDS011;38443;53.164;5.802;2023-05-21T10:13:55;8.57;;;3.78;;
52534;SDS011;38443;53.164;5.802;2023-05-21T10:16:24;6.80;;;4.45;;
52534;SDS011;38443;53.164;5.802;2023-05-21T10:18:50;5.43;;;3.58;;
52534;SDS011;38443;53.164;5.802;2023-05-21T10:21:18;6.05;;;3.38;;
52534;SDS011;38443;53.164;5.802;2023-05-21T10:23:48;6.10;;;3.95;;
52534;SDS011;38443;53.164;5.802;2023-05-21T10:26:22;4.95;;;3.22;;
52534;SDS011;38443;53.164;5.802;2023-05-21T10:28:51;8.93;;;3.75;;
52534;SDS011;38443;53.164;5.802;2023-05-21T10:31:16;8.38;;;3.70;;
52534;SDS011;38443;53.164;5.802;2023-05-21T10:33:42;6.03;;;3.20;;
52534;SDS011;38443;53.164;5.802;2023-05-21T10:36:08;4.43;;;3.03;;
52534;SDS011;38443;53.164;5.802;2023-05-21T10:38:34;7.88;;;3.78;;
52534;SDS011;38443;53.164;5.802;2023-05-21T10:41:01;7.18;;;3.58;;
52534;SDS011;38443;53.164;5.802;2023-05-21T10:43:37;6.05;;;3.30;;
52534;SDS011;38443;53.164;5.802;2023-05-21T10:51:22;6.95;;;3.40;;
52534;SDS011;38443;53.164;5.802;2023-05-21T10:53:57;9.63;;;3.90;;
52534;SDS011;38443;53.164;5.802;2023-05-21T10:56:53;5.57;;;3.50;;
52534;SDS011;38443;53.164;5.802;2023-05-21T10:59:35;5.75;;;3.42;;
52534;SDS011;38443;53.164;5.802;2023-05-21T11:02:05;6.05;;;3.22;;
52534;SDS011;38443;53.164;5.802;2023-05-21T11:04:31;8.65;;;3.83;;
52534;SDS011;38443;53.164;5.802;2023-05-21T11:06:58;9.02;;;4.30;;
52534;SDS011;38443;53.164;5.802;2023-05-21T11:09:24;6.78;;;3.28;;
52534;SDS011;38443;53.164;5.802;2023-05-21T11:11:51;7.30;;;3.67;;
52534;SDS011;38443;53.164;5.802;2023-05-21T11:16:59;6.95;;;3.92;;
52534;SDS011;38443;53.164;5.802;2023-05-21T11:19:45;7.25;;;3.88;;
52534;SDS011;38443;53.164;5.802;2023-05-21T11:22:25;6.65;;;4.22;;
52534;SDS011;38443;53.164;5.802;2023-05-21T11:24:52;9.73;;;4.22;;
52534;SDS011;38443;53.164;5.802;2023-05-21T11:27:40;8.55;;;4.30;;
52534;SDS011;38443;53.164;5.802;2023-05-21T11:30:05;5.43;;;3.40;;
52534;SDS011;38443;53.164;5.802;2023-05-21T11:32:38;7.75;;;3.80;;
52534;SDS011;38443;53.164;5.802;2023-05-21T11:35:24;6.55;;;3.90;;
52534;SDS011;38443;53.164;5.802;2023-05-21T11:37:52;6.90;;;4.10;;
52534;SDS011;38443;53.164;5.802;2023-05-21T11:42:44;6.07;;;4.15;;
52534;SDS011;38443;53.164;5.802;2023-05-21T11:45:13;6.30;;;4.32;;
52534;SDS011;38443;53.164;5.802;2023-05-21T11:47:41;6.53;;;3.55;;
52534;SDS011;38443;53.164;5.802;2023-05-21T11:50:10;6.03;;;3.80;;
52534;SDS011;38443;53.164;5.802;2023-05-21T11:52:37;7.85;;;4.22;;
52534;SDS011;38443;53.164;5.802;2023-05-21T11:55:04;7.18;;;4.05;;
52534;SDS011;38443;53.164;5.802;2023-05-21T11:57:31;7.18;;;4.65;;
52534;SDS011;38443;53.164;5.802;2023-05-21T11:59:57;9.75;;;4.55;;
52534;SDS011;38443;53.164;5.802;2023-05-21T12:02:26;6.00;;;4.07;;
52534;SDS011;38443;53.164;5.802;2023-05-21T12:04:55;5.10;;;3.80;;
52534;SDS011;38443;53.164;5.802;2023-05-21T12:07:25;8.15;;;4.20;;
52534;SDS011;38443;53.164;5.802;2023-05-21T12:09:55;6.65;;;4.22;;
52534;SDS011;38443;53.164;5.802;2023-05-21T12:12:23;6.90;;;4.00;;
52534;SDS011;38443;53.164;5.802;2023-05-21T12:14:50;7.38;;;3.58;;
52534;SDS011;38443;53.164;5.802;2023-05-21T12:17:18;9.15;;;4.35;;
52534;SDS011;38443;53.164;5.802;2023-05-21T12:19:45;7.38;;;3.97;;
52534;SDS011;38443;53.164;5.802;2023-05-21T12:22:12;5.90;;;3.60;;
52534;SDS011;38443;53.164;5.802;2023-05-21T12:24:39;7.13;;;3.90;;
52534;SDS011;38443;53.164;5.802;2023-05-21T12:27:05;6.75;;;3.63;;
52534;SDS011;38443;53.164;5.802;2023-05-21T12:29:34;7.93;;;3.45;;
52534;SDS011;38443;53.164;5.802;2023-05-21T12:32:02;7.38;;;3.70;;
52534;SDS011;38443;53.164;5.802;2023-05-21T12:37:16;9.48;;;4.50;;
52534;SDS011;38443;53.164;5.802;2023-05-21T12:39:48;8.82;;;3.55;;
52534;SDS011;38443;53.164;5.802;2023-05-21T12:42:15;7.85;;;3.97;;
52534;SDS011;38443;53.164;5.802;2023-05-21T12:44:47;7.07;;;3.75;;
52534;SDS011;38443;53.164;5.802;2023-05-21T12:47:13;10.77;;;4.28;;
52534;SDS011;38443;53.164;5.802;2023-05-21T12:49:42;7.45;;;4.47;;
52534;SDS011;38443;53.164;5.802;2023-05-21T12:54:43;7.28;;;4.20;;
52534;SDS011;38443;53.164;5.802;2023-05-21T12:57:13;10.32;;;4.53;;
52534;SDS011;38443;53.164;5.802;2023-05-21T13:02:24;7.30;;;4.53;;
52534;SDS011;38443;53.164;5.802;2023-05-21T13:04:54;7.72;;;4.68;;
52534;SDS011;38443;53.164;5.802;2023-05-21T13:07:20;8.98;;;4.88;;
52534;SDS011;38443;53.164;5.802;2023-05-21T13:09:46;10.02;;;4.60;;
52534;SDS011;38443;53.164;5.802;2023-05-21T13:12:12;11.23;;;5.35;;
52534;SDS011;38443;53.164;5.802;2023-05-21T13:14:38;11.27;;;4.70;;
52534;SDS011;38443;53.164;5.802;2023-05-21T13:17:03;10.30;;;4.75;;
52534;SDS011;38443;53.164;5.802;2023-05-21T13:19:28;11.82;;;5.78;;
52534;SDS011;38443;53.164;5.802;2023-05-21T13:21:54;7.90;;;5.63;;
52534;SDS011;38443;53.164;5.802;2023-05-21T13:24:20;11.10;;;6.30;;
52534;SDS011;38443;53.164;5.802;2023-05-21T13:26:45;14.15;;;6.68;;
52534;SDS011;38443;53.164;5.802;2023-05-21T13:29:10;9.50;;;5.32;;
52534;SDS011;38443;53.164;5.802;2023-05-21T13:31:39;9.30;;;5.90;;
52534;SDS011;38443;53.164;5.802;2023-05-21T13:34:09;12.40;;;5.88;;
52534;SDS011;38443;53.164;5.802;2023-05-21T13:36:35;12.73;;;6.03;;
52534;SDS011;38443;53.164;5.802;2023-05-21T13:39:01;11.30;;;5.57;;
52534;SDS011;38443;53.164;5.802;2023-05-21T13:41:26;8.38;;;6.07;;
52534;SDS011;38443;53.164;5.802;2023-05-21T13:43:55;10.75;;;6.13;;
52534;SDS011;38443;53.164;5.802;2023-05-21T13:46:23;9.20;;;6.05;;
52534;SDS011;38443;53.164;5.802;2023-05-21T13:48:49;12.98;;;7.15;;
52534;SDS011;38443;53.164;5.802;2023-05-21T13:51:14;11.30;;;6.25;;
52534;SDS011;38443;53.164;5.802;2023-05-21T13:53:39;11.30;;;6.32;;
52534;SDS011;38443;53.164;5.802;2023-05-21T13:56:05;12.80;;;6.57;;
52534;SDS011;38443;53.164;5.802;2023-05-21T13:58:30;14.52;;;6.38;;
52534;SDS011;38443;53.164;5.802;2023-05-21T14:00:59;10.15;;;6.43;;
52534;SDS011;38443;53.164;5.802;2023-05-21T14:03:25;14.13;;;6.78;;
52534;SDS011;38443;53.164;5.802;2023-05-21T14:05:51;12.32;;;6.38;;
52534;SDS011;38443;53.164;5.802;2023-05-21T14:08:17;11.88;;;7.15;;
52534;SDS011;38443;53.164;5.802;2023-05-21T14:10:44;8.23;;;5.65;;
52534;SDS011;38443;53.164;5.802;2023-05-21T14:13:11;12.73;;;8.05;;
52534;SDS011;38443;53.164;5.802;2023-05-21T14:15:36;13.25;;;8.88;;
52534;SDS011;38443;53.164;5.802;2023-05-21T14:18:02;16.30;;;9.75;;
52534;SDS011;38443;53.164;5.802;2023-05-21T14:20:31;18.02;;;9.63;;
52534;SDS011;38443;53.164;5.802;2023-05-21T14:22:58;15.68;;;8.98;;
52534;SDS011;38443;53.164;5.802;2023-05-21T14:25:24;19.50;;;10.50;;
52534;SDS011;38443;53.164;5.802;2023-05-21T14:27:51;16.73;;;9.55;;
52534;SDS011;38443;53.164;5.802;2023-05-21T14:30:17;16.05;;;9.55;;
52534;SDS011;38443;53.164;5.802;2023-05-21T14:32:42;17.65;;;9.73;;
52534;SDS011;38443;53.164;5.802;2023-05-21T14:35:09;15.75;;;9.48;;
52534;SDS011;38443;53.164;5.802;2023-05-21T14:37:34;15.55;;;9.38;;
52534;SDS011;38443;53.164;5.802;2023-05-21T14:40:00;15.30;;;9.73;;
52534;SDS011;38443;53.164;5.802;2023-05-21T14:42:25;16.85;;;9.40;;
52534;SDS011;38443;53.164;5.802;2023-05-21T14:44:51;15.60;;;9.48;;
52534;SDS011;38443;53.164;5.802;2023-05-21T14:47:17;14.75;;;9.32;;
52534;SDS011;38443;53.164;5.802;2023-05-21T14:49:42;15.05;;;8.85;;
52534;SDS011;38443;53.164;5.802;2023-05-21T14:52:08;16.70;;;9.70;;
52534;SDS011;38443;53.164;5.802;2023-05-21T14:54:33;12.90;;;8.02;;
52534;SDS011;38443;53.164;5.802;2023-05-21T14:56:58;13.40;;;8.57;;
52534;SDS011;38443;53.164;5.802;2023-05-21T14:59:24;11.05;;;8.32;;
52534;SDS011;38443;53.164;5.802;2023-05-21T15:01:49;16.63;;;8.63;;
52534;SDS011;38443;53.164;5.802;2023-05-21T15:04:15;14.82;;;8.95;;